createdAt,value
2019-06-27T00:01:43.934Z,58.95
2019-06-27T00:04:12.320Z,59.31
2019-06-27T00:06:40.685Z,59.60
2019-06-27T00:09:10.640Z,60.07
2019-06-27T00:11:38.979Z,60.48
2019-06-27T00:14:07.351Z,60.30
2019-06-27T00:16:35.688Z,60.50
2019-06-27T00:19:04.251Z,60.37
2019-06-27T00:21:32.590Z,60.07
2019-06-27T00:24:00.903Z,60.19
2019-06-27T00:26:31.658Z,59.87
2019-06-27T00:28:59.977Z,59.93
2019-06-27T00:31:28.386Z,59.61
2019-06-27T00:33:56.762Z,59.85
2019-06-27T00:36:25.092Z,60.20
2019-06-27T00:38:53.406Z,60.52
2019-06-27T00:41:21.795Z,60.90
2019-06-27T00:43:50.295Z,61.73
2019-06-27T00:46:18.804Z,62.10
2019-06-27T00:48:47.143Z,61.86
2019-06-27T00:51:15.614Z,61.77
2019-06-27T00:53:43.938Z,61.62
2019-06-27T00:56:12.308Z,61.61
2019-06-27T00:58:40.798Z,61.81
2019-06-27T01:01:09.394Z,61.83
2019-06-27T01:03:37.909Z,61.88
2019-06-27T01:06:06.291Z,61.74
2019-06-27T01:08:34.719Z,61.56
2019-06-27T01:11:03.118Z,61.71
2019-06-27T01:13:31.462Z,61.60
2019-06-27T01:15:59.858Z,61.96
2019-06-27T01:18:28.302Z,61.94
2019-06-27T01:20:58.146Z,62.13
2019-06-27T01:23:26.560Z,62.37
2019-06-27T01:25:55.132Z,62.25
2019-06-27T01:28:23.536Z,62.30
2019-06-27T01:30:51.909Z,62.17
2019-06-27T01:33:20.259Z,62.10
2019-06-27T01:35:48.558Z,62.30
2019-06-27T01:38:16.961Z,62.36
2019-06-27T01:40:45.303Z,62.37
2019-06-27T01:43:13.795Z,62.64
2019-06-27T01:45:52.612Z,62.37
2019-06-27T01:48:21.112Z,62.52
2019-06-27T01:50:49.495Z,62.59
2019-06-27T01:53:17.911Z,62.56
2019-06-27T01:55:46.597Z,62.64
2019-06-27T01:58:15.039Z,62.50
2019-06-27T02:00:43.409Z,62.88
2019-06-27T02:03:12.552Z,62.91
2019-06-27T02:05:41.122Z,63.13
2019-06-27T02:08:09.430Z,62.97
2019-06-27T02:10:37.837Z,62.84
2019-06-27T02:13:06.148Z,63.33
2019-06-27T02:15:34.481Z,63.53
2019-06-27T02:18:02.944Z,63.93
2019-06-27T02:20:31.407Z,63.65
2019-06-27T02:22:59.781Z,63.68
2019-06-27T02:25:28.208Z,63.50
2019-06-27T02:28:03.685Z,63.49
2019-06-27T02:30:38.810Z,63.92
2019-06-27T02:33:07.112Z,64.74
2019-06-27T02:35:35.517Z,65.14
2019-06-27T02:38:03.890Z,65.05
2019-06-27T02:40:32.392Z,65.21
2019-06-27T02:43:00.783Z,64.87
2019-06-27T02:45:29.265Z,64.95
2019-06-27T02:47:57.580Z,64.74
2019-06-27T02:50:25.975Z,64.91
2019-06-27T02:52:54.528Z,64.54
2019-06-27T02:55:22.940Z,64.74
2019-06-27T02:57:51.346Z,65.26
2019-06-27T03:00:20.199Z,65.40
2019-06-27T03:02:48.649Z,65.66
2019-06-27T03:05:17.148Z,65.64
2019-06-27T03:07:45.460Z,65.79
2019-06-27T03:10:14.511Z,65.44
2019-06-27T03:12:42.836Z,65.22
2019-06-27T03:15:11.279Z,65.15
2019-06-27T03:17:39.629Z,65.26
2019-06-27T03:20:09.469Z,65.31
2019-06-27T03:22:37.846Z,65.54
2019-06-27T03:25:06.972Z,65.53
2019-06-27T03:27:35.448Z,65.50
2019-06-27T03:30:05.195Z,65.67
2019-06-27T03:32:33.601Z,65.62
2019-06-27T03:35:03.529Z,65.60
2019-06-27T03:37:31.948Z,65.43
2019-06-27T03:40:00.401Z,65.41
2019-06-27T03:42:29.032Z,65.38
2019-06-27T03:44:57.421Z,65.23
2019-06-27T03:47:26.020Z,65.09
2019-06-27T03:49:55.465Z,65.39
2019-06-27T03:52:23.789Z,65.33
2019-06-27T03:54:52.112Z,65.52
2019-06-27T03:57:20.711Z,65.58
2019-06-27T03:59:49.097Z,65.55
2019-06-27T04:02:17.484Z,65.11
2019-06-27T04:04:45.860Z,65.54
2019-06-27T04:07:14.353Z,65.79
2019-06-27T04:09:42.663Z,65.81
2019-06-27T04:12:10.994Z,66.17
2019-06-27T04:14:39.378Z,66.26
2019-06-27T04:17:07.804Z,66.32
2019-06-27T04:19:36.204Z,66.07
2019-06-27T04:22:06.143Z,66.04
2019-06-27T04:24:34.534Z,66.06
2019-06-27T04:27:02.904Z,66.16
2019-06-27T04:29:33.825Z,66.35
2019-06-27T04:32:01.434Z,66.31
2019-06-27T04:34:29.923Z,66.38
2019-06-27T04:36:58.279Z,66.54
2019-06-27T04:39:26.828Z,66.21
2019-06-27T04:41:55.136Z,66.40
2019-06-27T04:44:23.467Z,66.77
2019-06-27T04:46:51.907Z,66.32
2019-06-27T04:49:20.332Z,66.18
2019-06-27T04:51:48.715Z,66.34
2019-06-27T04:54:17.201Z,66.27
2019-06-27T04:56:45.513Z,66.41
2019-06-27T04:59:13.841Z,66.17
2019-06-27T05:01:42.223Z,66.80
2019-06-27T05:04:10.661Z,66.27
2019-06-27T05:06:39.062Z,66.39
2019-06-27T05:09:07.419Z,66.42
2019-06-27T05:11:35.730Z,66.07
2019-06-27T05:14:04.195Z,66.40
2019-06-27T05:16:32.505Z,66.58
2019-06-27T05:19:00.898Z,66.92
2019-06-27T05:21:29.322Z,66.92
2019-06-27T05:23:57.649Z,66.75
2019-06-27T05:26:25.976Z,67.13
2019-06-27T05:28:54.297Z,66.93
2019-06-27T05:31:22.789Z,66.78
2019-06-27T05:33:51.097Z,66.38
2019-06-27T05:36:19.439Z,65.82
2019-06-27T05:38:47.795Z,65.35
2019-06-27T05:41:16.157Z,65.12
2019-06-27T05:43:44.660Z,64.79
2019-06-27T05:46:13.185Z,64.68
2019-06-27T05:48:41.484Z,64.23
2019-06-27T05:51:09.812Z,64.04
2019-06-27T05:53:38.482Z,63.80
2019-06-27T05:56:06.821Z,63.69
2019-06-27T05:58:35.107Z,63.92
2019-06-27T06:01:03.765Z,63.44
2019-06-27T06:03:32.059Z,63.30
2019-06-27T06:06:00.399Z,63.16
2019-06-27T06:08:28.709Z,63.10
2019-06-27T06:10:57.353Z,63.26
2019-06-27T06:13:25.716Z,63.19
2019-06-27T06:15:54.194Z,62.91
2019-06-27T06:18:22.490Z,62.92
2019-06-27T06:20:50.841Z,62.65
2019-06-27T06:23:19.195Z,62.85
2019-06-27T06:25:47.549Z,62.68
2019-06-27T06:28:16.012Z,62.41
2019-06-27T06:30:45.314Z,62.17
2019-06-27T06:33:13.733Z,61.54
2019-06-27T06:35:42.127Z,61.09
2019-06-27T06:38:10.494Z,60.95
2019-06-27T06:40:38.911Z,60.23
2019-06-27T06:43:07.337Z,59.89
2019-06-27T06:45:36.836Z,59.92
2019-06-27T06:48:05.533Z,60.03
2019-06-27T06:50:33.830Z,59.58
2019-06-27T06:53:02.149Z,59.61
2019-06-27T06:55:30.992Z,58.81
2019-06-27T06:57:59.325Z,59.23
2019-06-27T07:00:27.767Z,58.41
2019-06-27T07:02:56.085Z,58.70
2019-06-27T07:05:24.400Z,58.21
2019-06-27T07:07:52.807Z,58.08
2019-06-27T07:10:21.120Z,57.26
2019-06-27T07:12:49.501Z,56.92
2019-06-27T07:15:17.869Z,56.91
2019-06-27T07:17:46.213Z,56.61
2019-06-27T07:20:14.822Z,56.79
2019-06-27T07:22:43.120Z,56.17
2019-06-27T07:25:11.975Z,56.99
2019-06-27T07:27:40.306Z,57.19
2019-06-27T07:30:09.016Z,56.39
2019-06-27T07:32:37.433Z,56.43
2019-06-27T07:35:06.702Z,56.22
2019-06-27T07:37:35.035Z,56.01
2019-06-27T07:40:05.281Z,55.96
2019-06-27T07:42:33.628Z,55.66
2019-06-27T07:45:02.283Z,55.27
2019-06-27T07:47:30.697Z,55.00
2019-06-27T07:49:59.191Z,55.17
2019-06-27T07:52:27.604Z,54.85
2019-06-27T07:54:55.915Z,54.45
2019-06-27T07:57:24.245Z,55.07
2019-06-27T07:59:52.620Z,55.23
2019-06-27T08:02:20.995Z,54.71
2019-06-27T08:04:49.311Z,54.52
2019-06-27T08:07:21.070Z,54.73
2019-06-27T08:09:47.726Z,55.00
2019-06-27T08:12:16.109Z,54.33
2019-06-27T08:14:44.522Z,53.59
2019-06-27T08:17:12.828Z,54.22
2019-06-27T08:19:41.160Z,53.64
2019-06-27T08:22:09.563Z,53.37
2019-06-27T08:24:37.897Z,53.23
2019-06-27T08:27:06.634Z,53.04
2019-06-27T08:29:34.973Z,52.39
2019-06-27T08:32:03.327Z,52.48
2019-06-27T08:34:31.653Z,52.35
2019-06-27T08:36:59.970Z,52.17
2019-06-27T08:39:28.388Z,52.05
2019-06-27T08:41:56.764Z,51.93
2019-06-27T08:44:25.226Z,51.27
2019-06-27T08:46:53.564Z,51.50
2019-06-27T08:49:21.884Z,51.53
2019-06-27T08:51:50.410Z,51.49
2019-06-27T08:54:18.905Z,50.83
2019-06-27T08:56:47.222Z,50.70
2019-06-27T08:59:15.596Z,50.88
2019-06-27T09:01:43.874Z,50.66
2019-06-27T09:04:12.271Z,50.37
2019-06-27T09:06:40.730Z,50.06
2019-06-27T09:09:09.149Z,49.71
2019-06-27T09:11:38.353Z,50.26
2019-06-27T09:14:06.776Z,49.74
2019-06-27T09:16:35.155Z,49.48
2019-06-27T09:19:03.458Z,49.66
2019-06-27T09:21:31.794Z,49.64
2019-06-27T09:24:00.083Z,49.53
2019-06-27T09:26:28.429Z,49.33
2019-06-27T09:28:56.809Z,48.47
2019-06-27T09:31:25.208Z,48.18
2019-06-27T09:33:53.688Z,48.86
2019-06-27T09:36:22.098Z,48.28
2019-06-27T09:38:50.433Z,48.52
2019-06-27T09:41:18.889Z,48.38
2019-06-27T09:43:47.252Z,48.40
2019-06-27T09:46:15.631Z,47.90
2019-06-27T09:48:44.097Z,48.81
2019-06-27T09:51:12.438Z,48.04
2019-06-27T09:53:40.761Z,47.54
2019-06-27T09:56:09.245Z,47.15
2019-06-27T09:58:37.633Z,48.13
2019-06-27T10:01:06.386Z,47.05
2019-06-27T10:03:34.984Z,46.91
2019-06-27T10:06:03.480Z,46.48
2019-06-27T10:08:32.037Z,46.82
2019-06-27T10:11:00.387Z,46.81
2019-06-27T10:13:28.847Z,46.37
2019-06-27T10:15:59.105Z,47.15
2019-06-27T10:18:28.647Z,45.59
2019-06-27T10:20:57.003Z,45.16
2019-06-27T10:23:25.671Z,45.37
2019-06-27T10:25:54.018Z,44.85
2019-06-27T10:28:22.441Z,45.84
2019-06-27T10:30:50.798Z,45.88
2019-06-27T10:33:19.175Z,46.30
2019-06-27T10:35:47.444Z,45.75
2019-06-27T10:38:15.936Z,45.50
2019-06-27T10:40:44.245Z,45.71
2019-06-27T10:43:12.779Z,45.45
2019-06-27T10:45:41.165Z,45.49
2019-06-27T10:48:09.540Z,44.71
2019-06-27T10:50:37.901Z,43.50
2019-06-27T10:53:06.301Z,43.98
2019-06-27T10:55:34.617Z,44.22
2019-06-27T10:58:03.017Z,43.42
2019-06-27T11:00:31.385Z,43.06
2019-06-27T11:03:14.470Z,42.96
2019-06-27T11:05:29.891Z,42.52
2019-06-27T11:07:58.218Z,42.38
2019-06-27T11:10:26.515Z,42.22
2019-06-27T11:12:54.975Z,42.52
2019-06-27T11:15:23.343Z,41.51
2019-06-27T11:17:51.718Z,42.67
2019-06-27T11:20:20.130Z,42.30
2019-06-27T11:22:48.452Z,41.57
2019-06-27T11:25:16.765Z,40.68
2019-06-27T11:27:45.056Z,41.06
2019-06-27T11:30:15.133Z,40.21
2019-06-27T11:32:43.422Z,40.39
2019-06-27T11:35:12.037Z,40.09
2019-06-27T11:37:40.472Z,40.40
2019-06-27T11:40:12.290Z,40.55
2019-06-27T11:42:39.695Z,40.52
2019-06-27T11:45:08.193Z,39.95
2019-06-27T11:47:36.645Z,39.40
2019-06-27T11:50:05.859Z,40.06
2019-06-27T11:52:34.209Z,39.08
2019-06-27T11:55:02.603Z,39.82
2019-06-27T11:57:30.987Z,38.82
2019-06-27T11:59:59.493Z,38.86
2019-06-27T12:02:27.859Z,38.74
2019-06-27T12:04:56.215Z,37.60
2019-06-27T12:07:24.520Z,37.22
2019-06-27T12:09:52.924Z,37.41
2019-06-27T12:12:21.235Z,36.33
2019-06-27T12:14:49.759Z,36.49
2019-06-27T12:17:18.051Z,36.52
2019-06-27T12:19:46.397Z,35.91
2019-06-27T12:22:14.805Z,35.19
2019-06-27T12:24:43.294Z,35.69
2019-06-27T12:27:11.611Z,34.68
2019-06-27T12:29:40.139Z,34.60
2019-06-27T12:32:08.435Z,34.61
2019-06-27T12:34:36.750Z,34.12
2019-06-27T12:37:05.240Z,34.86
2019-06-27T12:39:33.592Z,34.06
2019-06-27T12:42:02.079Z,33.64
2019-06-27T12:44:30.574Z,33.93
2019-06-27T12:46:59.008Z,33.85
2019-06-27T12:49:44.818Z,33.59
2019-06-27T12:51:57.485Z,32.86
2019-06-27T12:54:25.831Z,32.97
2019-06-27T12:56:54.603Z,32.22
2019-06-27T12:59:22.912Z,32.07
2019-06-27T13:01:51.263Z,31.95
2019-06-27T13:04:24.001Z,31.89
2019-06-27T13:06:49.626Z,31.50
2019-06-27T13:09:17.928Z,31.65
2019-06-27T13:11:46.346Z,31.54
2019-06-27T13:14:14.831Z,31.42
2019-06-27T13:16:43.273Z,31.46
2019-06-27T13:19:11.653Z,32.46
2019-06-27T13:21:40.275Z,32.11
2019-06-27T13:24:08.730Z,32.73
2019-06-27T13:26:37.110Z,33.22
2019-06-27T13:29:05.410Z,33.73
2019-06-27T13:31:33.853Z,33.36
2019-06-27T13:34:02.353Z,33.20
2019-06-27T13:36:33.246Z,32.90
2019-06-27T13:39:01.097Z,32.62
2019-06-27T13:41:29.390Z,32.15
2019-06-27T13:44:00.545Z,31.70
2019-06-27T13:46:28.926Z,31.62
2019-06-27T13:48:57.347Z,31.73
2019-06-27T13:51:25.654Z,32.24
2019-06-27T13:53:54.012Z,31.51
2019-06-27T13:56:22.384Z,31.38
2019-06-27T13:58:50.736Z,30.93
2019-06-27T14:01:19.054Z,31.33
2019-06-27T14:03:49.758Z,31.22
2019-06-27T14:06:17.621Z,31.54
2019-06-27T14:08:46.073Z,31.71
2019-06-27T14:11:14.446Z,30.96
2019-06-27T14:13:42.761Z,31.29
2019-06-27T14:16:11.223Z,31.05
2019-06-27T14:18:39.615Z,31.17
2019-06-27T14:21:07.990Z,30.94
2019-06-27T14:23:36.356Z,31.55
2019-06-27T14:26:04.922Z,31.79
2019-06-27T14:28:33.231Z,31.57
2019-06-27T14:31:01.541Z,32.00
2019-06-27T14:33:29.961Z,32.38
2019-06-27T14:35:58.331Z,32.44
2019-06-27T14:38:26.884Z,33.29
2019-06-27T14:40:55.282Z,33.21
2019-06-27T14:43:23.550Z,33.11
2019-06-27T14:45:51.993Z,33.40
2019-06-27T14:48:20.307Z,33.62
2019-06-27T14:50:48.715Z,33.92
2019-06-27T14:53:17.195Z,34.32
2019-06-27T14:55:45.559Z,33.95
2019-06-27T14:58:13.987Z,34.03
2019-06-27T15:00:42.406Z,34.92
2019-06-27T15:03:11.090Z,36.23
2019-06-27T15:05:39.452Z,36.58
2019-06-27T15:08:07.899Z,36.39
2019-06-27T15:10:36.284Z,36.39
2019-06-27T15:13:04.583Z,36.87
2019-06-27T15:15:32.938Z,37.29
2019-06-27T15:18:01.270Z,37.15
2019-06-27T15:20:29.676Z,37.25
2019-06-27T15:22:58.086Z,37.26
2019-06-27T15:25:28.446Z,37.43
2019-06-27T15:27:56.700Z,37.53
2019-06-27T15:30:25.191Z,37.29
2019-06-27T15:32:53.484Z,37.67
2019-06-27T15:35:22.053Z,37.38
2019-06-27T15:37:50.365Z,38.21
2019-06-27T15:40:19.317Z,38.88
2019-06-27T15:42:47.707Z,38.72
2019-06-27T15:45:16.110Z,38.60
2019-06-27T15:47:44.536Z,38.38
2019-06-27T15:50:13.022Z,38.86
2019-06-27T15:52:41.454Z,39.08
2019-06-27T15:55:12.204Z,38.40
2019-06-27T15:57:40.904Z,38.18
2019-06-27T16:00:09.357Z,38.48
2019-06-27T16:02:38.508Z,38.45
2019-06-27T16:05:07.311Z,39.29
2019-06-27T16:07:35.820Z,39.32
2019-06-27T16:10:08.136Z,38.67
2019-06-27T16:12:36.892Z,38.86
2019-06-27T16:15:08.362Z,39.14
2019-06-27T16:17:36.746Z,38.68
2019-06-27T16:20:06.814Z,39.18
2019-06-27T16:22:36.905Z,39.22
2019-06-27T16:25:07.051Z,38.80
2019-06-27T16:27:35.475Z,38.93
2019-06-27T16:30:05.352Z,39.23
2019-06-27T16:32:33.715Z,39.34
2019-06-27T16:35:02.102Z,39.29
2019-06-27T16:37:30.735Z,39.56
2019-06-27T16:39:59.127Z,39.51
2019-06-27T16:42:27.611Z,39.52
2019-06-27T16:44:56.038Z,39.36
2019-06-27T16:47:24.470Z,39.80
2019-06-27T16:49:52.970Z,39.82
2019-06-27T16:52:21.401Z,39.90
2019-06-27T16:54:49.782Z,39.60
2019-06-27T16:57:18.161Z,39.83
2019-06-27T16:59:46.495Z,39.89
2019-06-27T17:02:14.874Z,39.60
2019-06-27T17:04:43.416Z,40.20
2019-06-27T17:07:11.731Z,40.11
2019-06-27T17:09:41.323Z,40.29
2019-06-27T17:12:09.612Z,40.09
2019-06-27T17:14:38.017Z,40.08
2019-06-27T17:17:06.379Z,39.53
2019-06-27T17:19:34.813Z,39.51
2019-06-27T17:22:03.154Z,39.75
2019-06-27T17:24:31.457Z,39.56
2019-06-27T17:26:59.788Z,39.26
2019-06-27T17:29:28.242Z,39.21
2019-06-27T17:31:56.564Z,39.35
2019-06-27T17:34:24.888Z,39.43
2019-06-27T17:36:57.923Z,38.06
2019-06-27T17:39:23.487Z,40.58
2019-06-27T17:41:51.781Z,40.83
2019-06-27T17:44:20.251Z,44.56
2019-06-27T17:46:48.906Z,44.09
2019-06-27T17:49:17.317Z,46.41
2019-06-27T17:51:45.694Z,46.65
2019-06-27T17:54:14.023Z,47.35
2019-06-27T17:56:42.344Z,46.93
2019-06-27T17:59:10.728Z,47.95
2019-06-27T18:01:39.840Z,48.24
2019-06-27T18:04:08.167Z,47.94
2019-06-27T18:06:36.544Z,46.68
2019-06-27T18:09:05.107Z,47.79
2019-06-27T18:11:33.495Z,47.21
2019-06-27T18:14:01.901Z,47.49
2019-06-27T18:16:30.306Z,46.53
2019-06-27T18:19:00.691Z,47.00
2019-06-27T18:21:28.701Z,47.40
2019-06-27T18:23:57.249Z,48.69
2019-06-27T18:26:25.641Z,48.65
2019-06-27T18:28:54.057Z,51.38
2019-06-27T18:31:22.459Z,49.57
2019-06-27T18:33:50.986Z,47.68
2019-06-27T18:36:19.324Z,48.06
2019-06-27T18:38:47.756Z,50.29
2019-06-27T18:41:16.253Z,49.84
2019-06-27T18:43:44.728Z,48.58
2019-06-27T18:46:13.216Z,49.03
2019-06-27T18:48:41.484Z,47.83
2019-06-27T18:51:09.894Z,47.11
2019-06-27T18:53:38.342Z,48.58
2019-06-27T18:56:06.699Z,48.93
2019-06-27T18:58:35.166Z,46.87
2019-06-27T19:01:03.657Z,46.74
2019-06-27T19:03:32.048Z,47.29
2019-06-27T19:06:00.484Z,46.88
2019-06-27T19:08:28.856Z,47.08
2019-06-27T19:10:57.216Z,46.04
2019-06-27T19:13:27.261Z,45.98
2019-06-27T19:15:57.242Z,45.58
2019-06-27T19:18:48.248Z,45.21
2019-06-27T19:21:26.261Z,45.40
2019-06-27T19:23:56.276Z,44.95
2019-06-27T19:26:24.577Z,44.34
2019-06-27T19:28:53.139Z,44.68
2019-06-27T19:31:21.703Z,44.18
2019-06-27T19:33:50.249Z,43.54
2019-06-27T19:36:20.274Z,42.86
2019-06-27T19:38:50.821Z,42.68
2019-06-27T19:41:19.280Z,42.59
2019-06-27T19:43:49.436Z,43.02
2019-06-27T19:46:19.921Z,41.89
2019-06-27T19:48:48.600Z,41.67
2019-06-27T19:51:17.106Z,41.61
2019-06-27T19:53:45.517Z,41.41
2019-06-27T19:56:13.823Z,41.70
2019-06-27T19:58:42.441Z,40.54
2019-06-27T20:01:10.886Z,40.68
2019-06-27T20:03:39.289Z,41.30
2019-06-27T20:06:07.664Z,40.40
2019-06-27T20:08:36.090Z,40.41
2019-06-27T20:11:04.725Z,39.79
2019-06-27T20:13:33.122Z,39.54
2019-06-27T20:16:01.599Z,39.77
2019-06-27T20:18:29.926Z,39.90
2019-06-27T20:20:58.290Z,39.55
2019-06-27T20:23:26.611Z,39.60
2019-06-27T20:25:55.026Z,39.32
2019-06-27T20:28:23.316Z,39.97
2019-06-27T20:30:51.668Z,39.75
2019-06-27T20:33:21.431Z,39.08
2019-06-27T20:35:49.791Z,39.17
2019-06-27T20:38:30.777Z,39.07
2019-06-27T20:40:48.452Z,39.17
2019-06-27T20:43:16.820Z,39.56
2019-06-27T20:45:45.350Z,38.56
2019-06-27T20:48:13.710Z,39.01
2019-06-27T20:50:42.044Z,38.94
2019-06-27T20:53:10.531Z,38.80
2019-06-27T20:55:38.930Z,38.52
2019-06-27T20:58:07.385Z,38.52
2019-06-27T21:00:35.925Z,38.62
2019-06-27T21:03:04.585Z,37.78
2019-06-27T21:05:33.060Z,38.20
2019-06-27T21:08:01.457Z,37.70
2019-06-27T21:10:30.026Z,37.91
2019-06-27T21:12:58.309Z,37.72
2019-06-27T21:15:26.642Z,37.62
2019-06-27T21:17:55.085Z,37.99
2019-06-27T21:20:24.051Z,38.71
2019-06-27T21:22:52.531Z,38.10
2019-06-27T21:25:21.020Z,38.03
2019-06-27T21:27:49.457Z,38.29
2019-06-27T21:30:18.028Z,37.73
2019-06-27T21:32:48.430Z,37.91
2019-06-27T21:35:16.530Z,38.18
2019-06-27T21:37:44.840Z,38.65
2019-06-27T21:40:13.606Z,38.79
2019-06-27T21:42:42.063Z,38.48
2019-06-27T21:45:11.263Z,38.45
2019-06-27T21:47:39.719Z,38.79
2019-06-27T21:50:08.251Z,39.01
2019-06-27T21:52:36.980Z,38.89
2019-06-27T21:55:06.345Z,38.24
2019-06-27T21:57:34.746Z,39.05
2019-06-27T22:00:04.282Z,39.08
2019-06-27T22:02:32.654Z,39.13
2019-06-27T22:05:01.029Z,39.87
2019-06-27T22:07:29.602Z,40.05
2019-06-27T22:09:58.041Z,40.17
2019-06-27T22:12:26.417Z,40.80
2019-06-27T22:14:54.730Z,40.80
2019-06-27T22:17:23.043Z,40.92
2019-06-27T22:19:51.415Z,41.25
2019-06-27T22:22:19.731Z,41.12
2019-06-27T22:24:48.022Z,41.01
2019-06-27T22:27:16.409Z,41.16
2019-06-27T22:29:44.775Z,41.08
2019-06-27T22:32:13.234Z,40.98
2019-06-27T22:34:43.451Z,41.13
2019-06-27T22:37:12.095Z,41.26
2019-06-27T22:39:58.682Z,41.27
2019-06-27T22:42:44.978Z,41.51
2019-06-27T22:45:31.632Z,41.93
2019-06-27T22:48:13.976Z,42.37
2019-06-27T22:50:50.671Z,42.39
2019-06-27T22:53:25.138Z,42.46
2019-06-27T22:55:54.674Z,42.41
2019-06-27T22:58:23.124Z,42.30
2019-06-27T23:00:51.715Z,42.55
2019-06-27T23:03:20.165Z,42.31
2019-06-27T23:05:48.547Z,42.79
2019-06-27T23:08:16.884Z,42.98
2019-06-27T23:10:45.230Z,42.57
2019-06-27T23:13:13.611Z,42.89
2019-06-27T23:15:42.450Z,43.55
2019-06-27T23:18:10.823Z,43.70
2019-06-27T23:20:39.208Z,43.52
2019-06-27T23:23:07.526Z,44.18
2019-06-27T23:25:35.840Z,44.32
2019-06-27T23:28:04.152Z,44.59
2019-06-27T23:30:34.087Z,45.26
2019-06-27T23:33:02.395Z,45.41
2019-06-27T23:35:30.771Z,45.01
2019-06-27T23:37:59.146Z,44.99
2019-06-27T23:40:27.536Z,45.33
2019-06-27T23:42:55.860Z,45.56
2019-06-27T23:45:24.270Z,45.25
2019-06-27T23:47:52.625Z,45.77
2019-06-27T23:50:20.965Z,45.45
2019-06-27T23:52:49.268Z,45.93
2019-06-27T23:55:17.652Z,46.11
2019-06-27T23:57:46.031Z,46.62
